sensor_id;sensor_type;location;lat;lon;timestamp;P1;durP1;ratioP1;P2;durP2;ratioP2
30862;SDS011;17573;55.922;37.540;2022-12-20T00:01:28;22.15;;;10.63;;
30862;SDS011;17573;55.922;37.540;2022-12-20T00:04:01;18.73;;;10.93;;
30862;SDS011;17573;55.922;37.540;2022-12-20T00:06:56;16.05;;;8.52;;
30862;SDS011;17573;55.922;37.540;2022-12-20T00:09:28;17.05;;;8.85;;
30862;SDS011;17573;55.922;37.540;2022-12-20T00:12:21;14.40;;;9.13;;
30862;SDS011;17573;55.922;37.540;2022-12-20T00:14:53;14.77;;;9.38;;
30862;SDS011;17573;55.922;37.540;2022-12-20T00:17:46;18.40;;;8.10;;
30862;SDS011;17573;55.922;37.540;2022-12-20T00:20:18;17.10;;;9.27;;
30862;SDS011;17573;55.922;37.540;2022-12-20T00:23:11;18.67;;;9.48;;
30862;SDS011;17573;55.922;37.540;2022-12-20T00:25:43;20.48;;;9.80;;
30862;SDS011;17573;55.922;37.540;2022-12-20T00:28:36;24.60;;;8.00;;
30862;SDS011;17573;55.922;37.540;2022-12-20T00:31:11;12.73;;;8.50;;
30862;SDS011;17573;55.922;37.540;2022-12-20T00:34:05;13.23;;;8.05;;
30862;SDS011;17573;55.922;37.540;2022-12-20T00:36:38;13.88;;;8.50;;
30862;SDS011;17573;55.922;37.540;2022-12-20T00:39:31;16.33;;;9.70;;
30862;SDS011;17573;55.922;37.540;2022-12-20T00:42:03;15.63;;;9.27;;
30862;SDS011;17573;55.922;37.540;2022-12-20T00:44:57;16.00;;;8.52;;
30862;SDS011;17573;55.922;37.540;2022-12-20T00:47:29;16.08;;;9.48;;
30862;SDS011;17573;55.922;37.540;2022-12-20T00:50:22;13.80;;;8.68;;
30862;SDS011;17573;55.922;37.540;2022-12-20T00:52:54;14.55;;;8.90;;
30862;SDS011;17573;55.922;37.540;2022-12-20T00:55:47;13.05;;;8.93;;
30862;SDS011;17573;55.922;37.540;2022-12-20T00:58:19;19.17;;;9.75;;
30862;SDS011;17573;55.922;37.540;2022-12-20T01:03:47;13.13;;;9.45;;
30862;SDS011;17573;55.922;37.540;2022-12-20T01:06:41;15.60;;;8.25;;
30862;SDS011;17573;55.922;37.540;2022-12-20T01:09:13;13.65;;;7.30;;
30862;SDS011;17573;55.922;37.540;2022-12-20T01:12:06;11.65;;;9.05;;
30862;SDS011;17573;55.922;37.540;2022-12-20T01:14:38;16.27;;;8.27;;
30862;SDS011;17573;55.922;37.540;2022-12-20T01:17:31;15.77;;;8.15;;
30862;SDS011;17573;55.922;37.540;2022-12-20T01:20:04;15.75;;;8.23;;
30862;SDS011;17573;55.922;37.540;2022-12-20T01:22:58;17.75;;;8.18;;
30862;SDS011;17573;55.922;37.540;2022-12-20T01:25:30;11.68;;;8.50;;
30862;SDS011;17573;55.922;37.540;2022-12-20T01:28:23;13.93;;;9.15;;
30862;SDS011;17573;55.922;37.540;2022-12-20T01:30:55;12.95;;;8.88;;
30862;SDS011;17573;55.922;37.540;2022-12-20T01:33:48;13.63;;;8.40;;
30862;SDS011;17573;55.922;37.540;2022-12-20T01:36:22;10.15;;;7.68;;
30862;SDS011;17573;55.922;37.540;2022-12-20T01:39:17;12.48;;;7.45;;
30862;SDS011;17573;55.922;37.540;2022-12-20T01:41:50;13.10;;;8.43;;
30862;SDS011;17573;55.922;37.540;2022-12-20T01:47:15;11.68;;;7.53;;
30862;SDS011;17573;55.922;37.540;2022-12-20T01:50:08;14.40;;;8.68;;
30862;SDS011;17573;55.922;37.540;2022-12-20T01:52:41;12.13;;;7.78;;
30862;SDS011;17573;55.922;37.540;2022-12-20T01:55:35;22.55;;;10.07;;
30862;SDS011;17573;55.922;37.540;2022-12-20T01:58:09;13.98;;;8.35;;
30862;SDS011;17573;55.922;37.540;2022-12-20T02:01:04;11.85;;;9.07;;
30862;SDS011;17573;55.922;37.540;2022-12-20T02:03:36;15.68;;;9.05;;
30862;SDS011;17573;55.922;37.540;2022-12-20T02:06:29;15.75;;;9.30;;
30862;SDS011;17573;55.922;37.540;2022-12-20T02:09:02;23.88;;;8.73;;
30862;SDS011;17573;55.922;37.540;2022-12-20T02:30:05;14.18;;;9.15;;
30862;SDS011;17573;55.922;37.540;2022-12-20T02:32:43;11.98;;;8.75;;
30862;SDS011;17573;55.922;37.540;2022-12-20T02:35:45;17.77;;;10.15;;
30862;SDS011;17573;55.922;37.540;2022-12-20T02:41:37;21.40;;;10.20;;
30862;SDS011;17573;55.922;37.540;2022-12-20T02:44:15;20.42;;;11.50;;
30862;SDS011;17573;55.922;37.540;2022-12-20T02:47:31;24.85;;;10.65;;
30862;SDS011;17573;55.922;37.540;2022-12-20T02:50:06;20.17;;;11.30;;
30862;SDS011;17573;55.922;37.540;2022-12-20T02:53:00;18.70;;;10.70;;
30862;SDS011;17573;55.922;37.540;2022-12-20T02:55:36;22.63;;;10.90;;
30862;SDS011;17573;55.922;37.540;2022-12-20T03:01:22;18.60;;;10.68;;
30862;SDS011;17573;55.922;37.540;2022-12-20T03:04:19;18.10;;;9.55;;
30862;SDS011;17573;55.922;37.540;2022-12-20T03:07:03;19.48;;;9.60;;
30862;SDS011;17573;55.922;37.540;2022-12-20T03:09:59;16.65;;;10.07;;
30862;SDS011;17573;55.922;37.540;2022-12-20T03:12:31;21.77;;;11.57;;
30862;SDS011;17573;55.922;37.540;2022-12-20T03:15:24;21.15;;;11.23;;
30862;SDS011;17573;55.922;37.540;2022-12-20T03:17:59;18.42;;;9.98;;
30862;SDS011;17573;55.922;37.540;2022-12-20T03:20:52;16.70;;;11.73;;
30862;SDS011;17573;55.922;37.540;2022-12-20T03:23:24;20.45;;;10.75;;
30862;SDS011;17573;55.922;37.540;2022-12-20T03:26:18;19.92;;;11.35;;
30862;SDS011;17573;55.922;37.540;2022-12-20T03:28:58;18.23;;;10.80;;
30862;SDS011;17573;55.922;37.540;2022-12-20T03:31:54;20.98;;;11.63;;
30862;SDS011;17573;55.922;37.540;2022-12-20T03:34:26;21.15;;;11.32;;
30862;SDS011;17573;55.922;37.540;2022-12-20T03:37:19;16.23;;;10.65;;
30862;SDS011;17573;55.922;37.540;2022-12-20T03:39:51;22.40;;;10.57;;
30862;SDS011;17573;55.922;37.540;2022-12-20T03:42:45;18.35;;;10.25;;
30862;SDS011;17573;55.922;37.540;2022-12-20T03:45:17;17.00;;;10.95;;
30862;SDS011;17573;55.922;37.540;2022-12-20T03:48:11;26.30;;;11.52;;
30862;SDS011;17573;55.922;37.540;2022-12-20T03:50:44;19.63;;;11.40;;
30862;SDS011;17573;55.922;37.540;2022-12-20T03:53:37;20.08;;;10.85;;
30862;SDS011;17573;55.922;37.540;2022-12-20T03:56:10;20.02;;;10.85;;
30862;SDS011;17573;55.922;37.540;2022-12-20T03:59:04;19.20;;;9.60;;
30862;SDS011;17573;55.922;37.540;2022-12-20T04:01:36;16.65;;;8.90;;
30862;SDS011;17573;55.922;37.540;2022-12-20T04:04:29;17.90;;;11.18;;
30862;SDS011;17573;55.922;37.540;2022-12-20T04:07:01;20.17;;;9.65;;
30862;SDS011;17573;55.922;37.540;2022-12-20T04:09:58;30.30;;;11.40;;
30862;SDS011;17573;55.922;37.540;2022-12-20T04:12:30;28.30;;;12.13;;
30862;SDS011;17573;55.922;37.540;2022-12-20T04:15:24;18.85;;;11.05;;
30862;SDS011;17573;55.922;37.540;2022-12-20T04:17:57;18.55;;;10.07;;
30862;SDS011;17573;55.922;37.540;2022-12-20T04:20:53;18.85;;;9.98;;
30862;SDS011;17573;55.922;37.540;2022-12-20T04:23:27;18.23;;;10.43;;
30862;SDS011;17573;55.922;37.540;2022-12-20T04:26:20;20.10;;;11.15;;
30862;SDS011;17573;55.922;37.540;2022-12-20T04:28:54;23.30;;;11.68;;
30862;SDS011;17573;55.922;37.540;2022-12-20T04:31:48;19.38;;;10.63;;
30862;SDS011;17573;55.922;37.540;2022-12-20T04:34:21;24.98;;;10.98;;
30862;SDS011;17573;55.922;37.540;2022-12-20T04:37:14;16.70;;;10.30;;
30862;SDS011;17573;55.922;37.540;2022-12-20T04:39:51;26.75;;;12.23;;
30862;SDS011;17573;55.922;37.540;2022-12-20T04:43:13;29.40;;;13.02;;
30862;SDS011;17573;55.922;37.540;2022-12-20T04:45:49;19.50;;;10.65;;
30862;SDS011;17573;55.922;37.540;2022-12-20T04:48:44;17.02;;;9.82;;
30862;SDS011;17573;55.922;37.540;2022-12-20T04:51:16;19.17;;;11.43;;
30862;SDS011;17573;55.922;37.540;2022-12-20T04:54:10;24.38;;;11.60;;
30862;SDS011;17573;55.922;37.540;2022-12-20T04:56:49;27.92;;;11.88;;
30862;SDS011;17573;55.922;37.540;2022-12-20T04:59:43;27.95;;;12.90;;
30862;SDS011;17573;55.922;37.540;2022-12-20T05:02:15;29.20;;;12.45;;
30862;SDS011;17573;55.922;37.540;2022-12-20T05:05:14;27.83;;;12.48;;
30862;SDS011;17573;55.922;37.540;2022-12-20T05:07:50;24.88;;;12.88;;
30862;SDS011;17573;55.922;37.540;2022-12-20T05:10:44;21.35;;;11.35;;
30862;SDS011;17573;55.922;37.540;2022-12-20T05:13:16;24.20;;;11.27;;
30862;SDS011;17573;55.922;37.540;2022-12-20T05:16:09;26.52;;;12.30;;
30862;SDS011;17573;55.922;37.540;2022-12-20T05:18:41;23.88;;;12.13;;
30862;SDS011;17573;55.922;37.540;2022-12-20T05:21:35;20.98;;;11.30;;
30862;SDS011;17573;55.922;37.540;2022-12-20T05:24:26;40.65;;;15.50;;
30862;SDS011;17573;55.922;37.540;2022-12-20T05:27:43;32.92;;;13.40;;
30862;SDS011;17573;55.922;37.540;2022-12-20T05:30:15;39.53;;;13.93;;
30862;SDS011;17573;55.922;37.540;2022-12-20T05:33:08;36.63;;;13.27;;
30862;SDS011;17573;55.922;37.540;2022-12-20T05:35:42;25.75;;;11.82;;
30862;SDS011;17573;55.922;37.540;2022-12-20T05:38:35;58.05;;;19.20;;
30862;SDS011;17573;55.922;37.540;2022-12-20T05:41:13;33.08;;;16.58;;
30862;SDS011;17573;55.922;37.540;2022-12-20T05:44:06;27.33;;;14.60;;
30862;SDS011;17573;55.922;37.540;2022-12-20T05:46:42;25.27;;;12.77;;
30862;SDS011;17573;55.922;37.540;2022-12-20T05:49:40;30.65;;;14.05;;
30862;SDS011;17573;55.922;37.540;2022-12-20T05:52:12;37.75;;;16.35;;
30862;SDS011;17573;55.922;37.540;2022-12-20T05:55:05;23.42;;;11.48;;
30862;SDS011;17573;55.922;37.540;2022-12-20T05:57:37;51.95;;;16.98;;
30862;SDS011;17573;55.922;37.540;2022-12-20T06:00:38;33.55;;;15.70;;
30862;SDS011;17573;55.922;37.540;2022-12-20T06:03:12;57.63;;;15.60;;
30862;SDS011;17573;55.922;37.540;2022-12-20T06:06:07;41.85;;;14.60;;
30862;SDS011;17573;55.922;37.540;2022-12-20T06:08:39;42.40;;;14.82;;
30862;SDS011;17573;55.922;37.540;2022-12-20T06:11:52;37.38;;;14.73;;
30862;SDS011;17573;55.922;37.540;2022-12-20T06:14:26;47.70;;;14.88;;
30862;SDS011;17573;55.922;37.540;2022-12-20T06:17:19;32.60;;;13.48;;
30862;SDS011;17573;55.922;37.540;2022-12-20T06:19:52;34.60;;;14.52;;
30862;SDS011;17573;55.922;37.540;2022-12-20T06:22:46;36.00;;;12.45;;
30862;SDS011;17573;55.922;37.540;2022-12-20T06:25:19;34.80;;;13.02;;
30862;SDS011;17573;55.922;37.540;2022-12-20T06:28:12;46.00;;;15.88;;
30862;SDS011;17573;55.922;37.540;2022-12-20T06:30:44;29.92;;;13.23;;
30862;SDS011;17573;55.922;37.540;2022-12-20T06:33:55;39.13;;;13.63;;
30862;SDS011;17573;55.922;37.540;2022-12-20T06:36:32;28.20;;;14.90;;
30862;SDS011;17573;55.922;37.540;2022-12-20T06:39:30;35.42;;;13.30;;
30862;SDS011;17573;55.922;37.540;2022-12-20T06:42:03;36.70;;;13.55;;
30862;SDS011;17573;55.922;37.540;2022-12-20T06:44:58;28.25;;;11.13;;
30862;SDS011;17573;55.922;37.540;2022-12-20T06:47:30;21.10;;;10.25;;
30862;SDS011;17573;55.922;37.540;2022-12-20T06:50:24;29.10;;;11.60;;
30862;SDS011;17573;55.922;37.540;2022-12-20T06:52:56;21.60;;;10.80;;
30862;SDS011;17573;55.922;37.540;2022-12-20T06:55:49;28.98;;;10.85;;
30862;SDS011;17573;55.922;37.540;2022-12-20T06:58:21;14.23;;;8.43;;
30862;SDS011;17573;55.922;37.540;2022-12-20T07:01:15;22.67;;;10.60;;
30862;SDS011;17573;55.922;37.540;2022-12-20T07:03:47;29.77;;;11.43;;
30862;SDS011;17573;55.922;37.540;2022-12-20T07:06:40;26.33;;;11.02;;
30862;SDS011;17573;55.922;37.540;2022-12-20T07:09:12;20.55;;;10.35;;
30862;SDS011;17573;55.922;37.540;2022-12-20T07:12:05;16.50;;;9.15;;
30862;SDS011;17573;55.922;37.540;2022-12-20T07:14:38;24.48;;;9.27;;
30862;SDS011;17573;55.922;37.540;2022-12-20T07:17:31;18.30;;;10.02;;
30862;SDS011;17573;55.922;37.540;2022-12-20T07:20:03;15.82;;;8.55;;
30862;SDS011;17573;55.922;37.540;2022-12-20T07:22:57;17.80;;;9.57;;
30862;SDS011;17573;55.922;37.540;2022-12-20T07:25:29;19.55;;;8.20;;
30862;SDS011;17573;55.922;37.540;2022-12-20T07:28:22;16.63;;;8.93;;
30862;SDS011;17573;55.922;37.540;2022-12-20T07:30:58;17.08;;;8.35;;
30862;SDS011;17573;55.922;37.540;2022-12-20T07:33:53;12.30;;;8.98;;
30862;SDS011;17573;55.922;37.540;2022-12-20T07:36:25;20.50;;;10.15;;
30862;SDS011;17573;55.922;37.540;2022-12-20T07:39:18;15.55;;;7.88;;
30862;SDS011;17573;55.922;37.540;2022-12-20T07:41:53;26.83;;;8.32;;
30862;SDS011;17573;55.922;37.540;2022-12-20T07:44:54;20.83;;;8.52;;
30862;SDS011;17573;55.922;37.540;2022-12-20T07:47:27;27.38;;;11.27;;
30862;SDS011;17573;55.922;37.540;2022-12-20T07:50:21;25.90;;;10.05;;
30862;SDS011;17573;55.922;37.540;2022-12-20T07:52:53;20.67;;;9.95;;
30862;SDS011;17573;55.922;37.540;2022-12-20T07:55:46;30.00;;;10.48;;
30862;SDS011;17573;55.922;37.540;2022-12-20T07:58:18;53.38;;;12.88;;
30862;SDS011;17573;55.922;37.540;2022-12-20T08:01:11;30.45;;;13.80;;
30862;SDS011;17573;55.922;37.540;2022-12-20T08:03:44;31.02;;;11.10;;
30862;SDS011;17573;55.922;37.540;2022-12-20T08:06:39;21.42;;;9.43;;
30862;SDS011;17573;55.922;37.540;2022-12-20T08:09:12;18.70;;;9.82;;
30862;SDS011;17573;55.922;37.540;2022-12-20T08:12:06;20.60;;;9.77;;
30862;SDS011;17573;55.922;37.540;2022-12-20T08:14:39;29.45;;;11.45;;
30862;SDS011;17573;55.922;37.540;2022-12-20T08:17:32;15.63;;;8.45;;
30862;SDS011;17573;55.922;37.540;2022-12-20T08:20:04;15.88;;;8.98;;
30862;SDS011;17573;55.922;37.540;2022-12-20T08:23:01;20.88;;;9.05;;
30862;SDS011;17573;55.922;37.540;2022-12-20T08:25:35;11.88;;;7.90;;
30862;SDS011;17573;55.922;37.540;2022-12-20T08:28:28;15.38;;;9.90;;
30862;SDS011;17573;55.922;37.540;2022-12-20T08:31:01;12.43;;;7.15;;
30862;SDS011;17573;55.922;37.540;2022-12-20T08:33:55;14.10;;;8.00;;
30862;SDS011;17573;55.922;37.540;2022-12-20T08:36:27;13.95;;;8.98;;
30862;SDS011;17573;55.922;37.540;2022-12-20T08:39:20;16.67;;;8.25;;
30862;SDS011;17573;55.922;37.540;2022-12-20T08:41:52;14.32;;;8.13;;
30862;SDS011;17573;55.922;37.540;2022-12-20T08:44:45;11.52;;;8.00;;
30862;SDS011;17573;55.922;37.540;2022-12-20T08:47:17;11.13;;;7.13;;
30862;SDS011;17573;55.922;37.540;2022-12-20T08:50:10;12.25;;;8.27;;
30862;SDS011;17573;55.922;37.540;2022-12-20T08:52:42;14.10;;;8.40;;
30862;SDS011;17573;55.922;37.540;2022-12-20T08:55:35;22.77;;;8.45;;
30862;SDS011;17573;55.922;37.540;2022-12-20T08:58:07;22.63;;;8.20;;
30862;SDS011;17573;55.922;37.540;2022-12-20T09:01:00;26.13;;;9.75;;
30862;SDS011;17573;55.922;37.540;2022-12-20T09:03:34;15.27;;;8.15;;
30862;SDS011;17573;55.922;37.540;2022-12-20T09:06:30;15.13;;;9.18;;
30862;SDS011;17573;55.922;37.540;2022-12-20T09:09:02;21.15;;;9.77;;
30862;SDS011;17573;55.922;37.540;2022-12-20T09:11:56;13.05;;;7.72;;
30862;SDS011;17573;55.922;37.540;2022-12-20T09:14:29;16.20;;;7.95;;
30862;SDS011;17573;55.922;37.540;2022-12-20T09:17:22;13.25;;;7.68;;
30862;SDS011;17573;55.922;37.540;2022-12-20T09:19:54;14.00;;;8.63;;
30862;SDS011;17573;55.922;37.540;2022-12-20T09:22:47;25.45;;;9.57;;
30862;SDS011;17573;55.922;37.540;2022-12-20T09:25:19;18.52;;;10.27;;
30862;SDS011;17573;55.922;37.540;2022-12-20T09:28:12;11.88;;;7.63;;
30862;SDS011;17573;55.922;37.540;2022-12-20T09:30:44;14.40;;;7.57;;
30862;SDS011;17573;55.922;37.540;2022-12-20T09:33:37;12.30;;;7.53;;
30862;SDS011;17573;55.922;37.540;2022-12-20T09:36:10;11.43;;;7.63;;
30862;SDS011;17573;55.922;37.540;2022-12-20T09:39:07;17.95;;;8.05;;
30862;SDS011;17573;55.922;37.540;2022-12-20T09:41:40;15.65;;;8.10;;
30862;SDS011;17573;55.922;37.540;2022-12-20T09:44:35;12.80;;;7.90;;
30862;SDS011;17573;55.922;37.540;2022-12-20T09:47:13;16.42;;;9.13;;
30862;SDS011;17573;55.922;37.540;2022-12-20T09:50:12;13.00;;;7.32;;
30862;SDS011;17573;55.922;37.540;2022-12-20T09:52:57;19.63;;;8.90;;
30862;SDS011;17573;55.922;37.540;2022-12-20T09:55:58;13.10;;;7.85;;
30862;SDS011;17573;55.922;37.540;2022-12-20T10:01:48;22.17;;;6.82;;
30862;SDS011;17573;55.922;37.540;2022-12-20T10:04:25;21.02;;;7.35;;
30862;SDS011;17573;55.922;37.540;2022-12-20T10:07:32;14.25;;;7.38;;
30862;SDS011;17573;55.922;37.540;2022-12-20T10:14:05;12.00;;;7.30;;
30862;SDS011;17573;55.922;37.540;2022-12-20T10:17:04;13.07;;;7.10;;
30862;SDS011;17573;55.922;37.540;2022-12-20T10:23:07;18.88;;;7.88;;
30862;SDS011;17573;55.922;37.540;2022-12-20T10:26:01;11.30;;;7.32;;
30862;SDS011;17573;55.922;37.540;2022-12-20T10:28:39;11.75;;;7.90;;
30862;SDS011;17573;55.922;37.540;2022-12-20T10:31:33;14.55;;;8.32;;
30862;SDS011;17573;55.922;37.540;2022-12-20T10:34:05;16.13;;;7.53;;
30862;SDS011;17573;55.922;37.540;2022-12-20T10:37:11;14.45;;;8.63;;
30862;SDS011;17573;55.922;37.540;2022-12-20T10:39:47;11.82;;;7.75;;
30862;SDS011;17573;55.922;37.540;2022-12-20T10:42:42;18.25;;;8.20;;
30862;SDS011;17573;55.922;37.540;2022-12-20T10:51:03;13.30;;;8.45;;
30862;SDS011;17573;55.922;37.540;2022-12-20T10:54:02;16.15;;;8.65;;
30862;SDS011;17573;55.922;37.540;2022-12-20T10:56:41;15.40;;;8.75;;
30862;SDS011;17573;55.922;37.540;2022-12-20T11:02:23;14.15;;;8.90;;
30862;SDS011;17573;55.922;37.540;2022-12-20T11:05:20;14.88;;;8.60;;
30862;SDS011;17573;55.922;37.540;2022-12-20T11:10:47;14.98;;;8.45;;
30862;SDS011;17573;55.922;37.540;2022-12-20T11:13:23;20.10;;;9.50;;
30862;SDS011;17573;55.922;37.540;2022-12-20T11:16:36;18.67;;;9.10;;
30862;SDS011;17573;55.922;37.540;2022-12-20T11:25:33;17.65;;;9.05;;
30862;SDS011;17573;55.922;37.540;2022-12-20T11:31:27;21.98;;;9.45;;
30862;SDS011;17573;55.922;37.540;2022-12-20T11:34:45;18.23;;;9.32;;
30862;SDS011;17573;55.922;37.540;2022-12-20T11:41:20;17.02;;;10.32;;
30862;SDS011;17573;55.922;37.540;2022-12-20T11:47:48;21.05;;;9.63;;
30862;SDS011;17573;55.922;37.540;2022-12-20T11:56:39;19.38;;;10.60;;
30862;SDS011;17573;55.922;37.540;2022-12-20T12:02:42;19.75;;;9.77;;
30862;SDS011;17573;55.922;37.540;2022-12-20T12:05:46;19.73;;;8.75;;
30862;SDS011;17573;55.922;37.540;2022-12-20T12:08:21;13.48;;;8.30;;
30862;SDS011;17573;55.922;37.540;2022-12-20T12:11:18;16.08;;;8.80;;
30862;SDS011;17573;55.922;37.540;2022-12-20T12:13:53;16.40;;;8.85;;
30862;SDS011;17573;55.922;37.540;2022-12-20T12:16:48;17.35;;;8.18;;
30862;SDS011;17573;55.922;37.540;2022-12-20T12:19:22;15.10;;;8.85;;
30862;SDS011;17573;55.922;37.540;2022-12-20T12:22:16;22.75;;;9.45;;
30862;SDS011;17573;55.922;37.540;2022-12-20T12:24:55;12.93;;;7.15;;
30862;SDS011;17573;55.922;37.540;2022-12-20T12:27:50;14.85;;;8.57;;
30862;SDS011;17573;55.922;37.540;2022-12-20T12:30:22;15.55;;;8.75;;
30862;SDS011;17573;55.922;37.540;2022-12-20T12:33:15;18.20;;;8.75;;
30862;SDS011;17573;55.922;37.540;2022-12-20T12:35:57;13.77;;;8.65;;
30862;SDS011;17573;55.922;37.540;2022-12-20T12:45:05;9.73;;;7.38;;
30862;SDS011;17573;55.922;37.540;2022-12-20T12:50:41;14.32;;;9.38;;
30862;SDS011;17573;55.922;37.540;2022-12-20T12:56:36;14.25;;;8.55;;
30862;SDS011;17573;55.922;37.540;2022-12-20T13:02:25;13.00;;;8.23;;
30862;SDS011;17573;55.922;37.540;2022-12-20T13:08:00;10.55;;;6.72;;
30862;SDS011;17573;55.922;37.540;2022-12-20T13:13:26;11.70;;;8.23;;
30862;SDS011;17573;55.922;37.540;2022-12-20T13:16:05;11.50;;;7.57;;
30862;SDS011;17573;55.922;37.540;2022-12-20T13:19:03;9.32;;;7.30;;
30862;SDS011;17573;55.922;37.540;2022-12-20T13:21:47;14.65;;;8.30;;
30862;SDS011;17573;55.922;37.540;2022-12-20T13:27:22;17.42;;;9.48;;
30862;SDS011;17573;55.922;37.540;2022-12-20T13:30:23;11.98;;;8.60;;
30862;SDS011;17573;55.922;37.540;2022-12-20T13:32:57;14.00;;;8.35;;
30862;SDS011;17573;55.922;37.540;2022-12-20T13:35:58;13.68;;;9.52;;
30862;SDS011;17573;55.922;37.540;2022-12-20T13:41:43;16.73;;;9.35;;
30862;SDS011;17573;55.922;37.540;2022-12-20T13:44:25;16.48;;;8.75;;
30862;SDS011;17573;55.922;37.540;2022-12-20T13:49:58;12.05;;;8.07;;
30862;SDS011;17573;55.922;37.540;2022-12-20T13:52:52;12.73;;;7.90;;
30862;SDS011;17573;55.922;37.540;2022-12-20T13:55:30;16.27;;;9.05;;
30862;SDS011;17573;55.922;37.540;2022-12-20T13:58:31;15.20;;;9.48;;
30862;SDS011;17573;55.922;37.540;2022-12-20T14:01:09;15.88;;;8.77;;
30862;SDS011;17573;55.922;37.540;2022-12-20T14:04:03;14.88;;;9.23;;
30862;SDS011;17573;55.922;37.540;2022-12-20T14:06:37;14.82;;;8.32;;
30862;SDS011;17573;55.922;37.540;2022-12-20T14:09:31;15.73;;;8.65;;
30862;SDS011;17573;55.922;37.540;2022-12-20T14:12:09;14.30;;;8.43;;
30862;SDS011;17573;55.922;37.540;2022-12-20T14:15:18;14.80;;;10.30;;
30862;SDS011;17573;55.922;37.540;2022-12-20T14:21:11;16.77;;;9.23;;
30862;SDS011;17573;55.922;37.540;2022-12-20T14:23:44;16.00;;;9.70;;
30862;SDS011;17573;55.922;37.540;2022-12-20T14:26:41;14.25;;;8.90;;
30862;SDS011;17573;55.922;37.540;2022-12-20T14:29:16;13.80;;;8.73;;
30862;SDS011;17573;55.922;37.540;2022-12-20T14:32:19;16.15;;;8.85;;
30862;SDS011;17573;55.922;37.540;2022-12-20T14:34:52;11.35;;;8.07;;
30862;SDS011;17573;55.922;37.540;2022-12-20T14:37:51;13.95;;;8.05;;
30862;SDS011;17573;55.922;37.540;2022-12-20T14:40:26;16.15;;;8.45;;
30862;SDS011;17573;55.922;37.540;2022-12-20T14:43:26;14.70;;;8.20;;
30862;SDS011;17573;55.922;37.540;2022-12-20T14:46:20;15.98;;;8.82;;
30862;SDS011;17573;55.922;37.540;2022-12-20T14:52:16;16.63;;;8.07;;
30862;SDS011;17573;55.922;37.540;2022-12-20T14:55:16;13.70;;;9.00;;
30862;SDS011;17573;55.922;37.540;2022-12-20T14:57:51;11.85;;;8.18;;
30862;SDS011;17573;55.922;37.540;2022-12-20T15:00:53;17.60;;;9.85;;
30862;SDS011;17573;55.922;37.540;2022-12-20T15:03:53;17.58;;;9.98;;
30862;SDS011;17573;55.922;37.540;2022-12-20T15:06:47;19.35;;;8.70;;
30862;SDS011;17573;55.922;37.540;2022-12-20T15:09:20;14.48;;;9.55;;
30862;SDS011;17573;55.922;37.540;2022-12-20T15:12:13;16.38;;;9.25;;
30862;SDS011;17573;55.922;37.540;2022-12-20T15:14:45;14.85;;;8.93;;
30862;SDS011;17573;55.922;37.540;2022-12-20T15:17:38;14.88;;;8.50;;
30862;SDS011;17573;55.922;37.540;2022-12-20T15:20:13;23.30;;;9.77;;
30862;SDS011;17573;55.922;37.540;2022-12-20T15:23:09;18.10;;;10.77;;
30862;SDS011;17573;55.922;37.540;2022-12-20T15:25:45;23.60;;;10.93;;
30862;SDS011;17573;55.922;37.540;2022-12-20T15:28:39;17.23;;;10.35;;
30862;SDS011;17573;55.922;37.540;2022-12-20T15:31:12;20.17;;;10.98;;
30862;SDS011;17573;55.922;37.540;2022-12-20T15:34:11;13.38;;;9.43;;
30862;SDS011;17573;55.922;37.540;2022-12-20T15:36:46;19.00;;;10.95;;
30862;SDS011;17573;55.922;37.540;2022-12-20T15:39:39;19.52;;;11.77;;
30862;SDS011;17573;55.922;37.540;2022-12-20T15:42:12;23.77;;;12.80;;
30862;SDS011;17573;55.922;37.540;2022-12-20T15:45:12;17.70;;;11.75;;
30862;SDS011;17573;55.922;37.540;2022-12-20T15:47:45;26.15;;;12.05;;
30862;SDS011;17573;55.922;37.540;2022-12-20T15:50:40;19.40;;;12.57;;
30862;SDS011;17573;55.922;37.540;2022-12-20T15:53:14;20.85;;;10.35;;
30862;SDS011;17573;55.922;37.540;2022-12-20T15:56:11;19.67;;;12.73;;
30862;SDS011;17573;55.922;37.540;2022-12-20T15:58:49;22.73;;;12.52;;
30862;SDS011;17573;55.922;37.540;2022-12-20T16:01:43;18.25;;;11.65;;
30862;SDS011;17573;55.922;37.540;2022-12-20T16:04:16;20.17;;;12.48;;
30862;SDS011;17573;55.922;37.540;2022-12-20T16:07:10;28.88;;;14.10;;
30862;SDS011;17573;55.922;37.540;2022-12-20T16:09:43;19.50;;;11.48;;
30862;SDS011;17573;55.922;37.540;2022-12-20T16:12:36;21.58;;;11.98;;
30862;SDS011;17573;55.922;37.540;2022-12-20T16:15:22;20.77;;;12.55;;
30862;SDS011;17573;55.922;37.540;2022-12-20T16:18:15;26.17;;;14.23;;
30862;SDS011;17573;55.922;37.540;2022-12-20T16:20:47;26.65;;;14.23;;
30862;SDS011;17573;55.922;37.540;2022-12-20T16:23:40;21.65;;;13.32;;
30862;SDS011;17573;55.922;37.540;2022-12-20T16:26:13;26.27;;;14.15;;
30862;SDS011;17573;55.922;37.540;2022-12-20T16:29:06;29.77;;;16.00;;
30862;SDS011;17573;55.922;37.540;2022-12-20T16:31:39;31.02;;;16.83;;
30862;SDS011;17573;55.922;37.540;2022-12-20T16:34:35;29.20;;;14.55;;
30862;SDS011;17573;55.922;37.540;2022-12-20T16:37:12;24.00;;;13.27;;
30862;SDS011;17573;55.922;37.540;2022-12-20T16:40:06;25.20;;;14.48;;
30862;SDS011;17573;55.922;37.540;2022-12-20T16:42:41;21.25;;;11.75;;
30862;SDS011;17573;55.922;37.540;2022-12-20T16:45:34;21.65;;;11.88;;
30862;SDS011;17573;55.922;37.540;2022-12-20T16:48:06;22.45;;;11.05;;
30862;SDS011;17573;55.922;37.540;2022-12-20T16:50:59;19.92;;;10.45;;
30862;SDS011;17573;55.922;37.540;2022-12-20T16:53:31;19.92;;;10.82;;
30862;SDS011;17573;55.922;37.540;2022-12-20T16:56:24;16.85;;;9.95;;
30862;SDS011;17573;55.922;37.540;2022-12-20T16:58:57;17.58;;;10.95;;
30862;SDS011;17573;55.922;37.540;2022-12-20T17:01:51;18.88;;;9.63;;
30862;SDS011;17573;55.922;37.540;2022-12-20T17:04:25;20.67;;;12.43;;
30862;SDS011;17573;55.922;37.540;2022-12-20T17:07:18;18.13;;;12.00;;
30862;SDS011;17573;55.922;37.540;2022-12-20T17:09:50;16.10;;;11.23;;
30862;SDS011;17573;55.922;37.540;2022-12-20T17:12:43;22.05;;;10.90;;
30862;SDS011;17573;55.922;37.540;2022-12-20T17:15:18;18.45;;;10.40;;
30862;SDS011;17573;55.922;37.540;2022-12-20T17:18:15;20.25;;;9.95;;
30862;SDS011;17573;55.922;37.540;2022-12-20T17:20:47;25.30;;;11.43;;
30862;SDS011;17573;55.922;37.540;2022-12-20T17:23:44;19.60;;;11.13;;
30862;SDS011;17573;55.922;37.540;2022-12-20T17:26:22;15.80;;;10.00;;
30862;SDS011;17573;55.922;37.540;2022-12-20T17:29:17;17.85;;;11.38;;
30862;SDS011;17573;55.922;37.540;2022-12-20T17:31:49;20.33;;;11.55;;
30862;SDS011;17573;55.922;37.540;2022-12-20T17:34:42;21.50;;;12.45;;
30862;SDS011;17573;55.922;37.540;2022-12-20T17:37:14;23.92;;;13.73;;
30862;SDS011;17573;55.922;37.540;2022-12-20T17:40:07;21.77;;;12.88;;
30862;SDS011;17573;55.922;37.540;2022-12-20T17:42:40;24.30;;;14.00;;
30862;SDS011;17573;55.922;37.540;2022-12-20T17:45:34;28.05;;;14.65;;
30862;SDS011;17573;55.922;37.540;2022-12-20T17:48:07;32.13;;;15.43;;
30862;SDS011;17573;55.922;37.540;2022-12-20T17:51:00;33.40;;;16.02;;
30862;SDS011;17573;55.922;37.540;2022-12-20T17:53:32;19.67;;;12.73;;